createdAt,value
2018-07-11T00:00:14.678Z,18.20
2018-07-11T00:01:14.622Z,18.10
2018-07-11T00:02:14.575Z,18.60
2018-07-11T00:03:14.528Z,18.30
2018-07-11T00:04:14.501Z,18.30
2018-07-11T00:05:14.425Z,18.50
2018-07-11T00:06:14.374Z,19.30
2018-07-11T00:07:14.328Z,18.30
2018-07-11T00:08:14.278Z,19.30
2018-07-11T00:09:14.257Z,18.50
2018-07-11T00:10:14.178Z,18.90
2018-07-11T00:11:14.132Z,18.80
2018-07-11T00:12:14.089Z,18.70
2018-07-11T00:13:14.032Z,18.90
2018-07-11T00:14:14.009Z,18.80
2018-07-11T00:15:13.950Z,19.40
2018-07-11T00:16:13.888Z,18.80
2018-07-11T00:17:13.834Z,19.10
2018-07-11T00:18:13.790Z,18.90
2018-07-11T00:19:13.763Z,18.40
2018-07-11T00:20:13.697Z,18.80
2018-07-11T00:21:13.643Z,19.10
2018-07-11T00:22:13.592Z,19.30
2018-07-11T00:23:13.544Z,19.60
2018-07-11T00:24:13.515Z,20.30
2018-07-11T00:25:13.447Z,19.70
2018-07-11T00:26:13.398Z,21.00
2018-07-11T00:27:13.348Z,20.40
2018-07-11T00:28:13.295Z,19.60
2018-07-11T00:29:13.270Z,20.30
2018-07-11T00:30:13.197Z,19.80
2018-07-11T00:31:13.153Z,20.00
2018-07-11T00:32:13.099Z,20.00
2018-07-11T00:33:13.052Z,20.50
2018-07-11T00:34:13.027Z,19.80
2018-07-11T00:35:12.976Z,19.90
2018-07-11T00:36:12.906Z,20.70
2018-07-11T00:37:12.906Z,20.40
2018-07-11T00:38:12.806Z,19.90
2018-07-11T00:39:12.759Z,20.40
2018-07-11T00:40:12.734Z,19.90
2018-07-11T00:41:12.659Z,19.60
2018-07-11T00:42:12.610Z,19.10
2018-07-11T00:43:12.560Z,19.40
2018-07-11T00:44:12.510Z,19.60
2018-07-11T00:45:12.483Z,19.70
2018-07-11T00:46:12.415Z,20.20
2018-07-11T00:47:12.368Z,19.70
2018-07-11T00:48:12.316Z,20.30
2018-07-11T00:49:12.264Z,19.50
2018-07-11T00:50:12.245Z,18.40
2018-07-11T00:51:12.173Z,18.60
2018-07-11T00:52:12.121Z,19.00
2018-07-11T00:53:12.073Z,19.20
2018-07-11T00:54:12.021Z,19.50
2018-07-11T00:55:11.995Z,18.90
2018-07-11T00:56:11.932Z,18.20
2018-07-11T00:57:11.873Z,18.20
2018-07-11T00:58:11.829Z,18.60
2018-07-11T00:59:11.775Z,18.90
2018-07-11T01:00:11.758Z,18.80
2018-07-11T01:01:11.688Z,17.60
2018-07-11T01:02:11.628Z,18.00
2018-07-11T01:03:11.579Z,17.40
2018-07-11T01:04:11.535Z,16.90
2018-07-11T01:05:11.486Z,17.70
2018-07-11T01:06:11.456Z,16.60
2018-07-11T01:07:11.387Z,16.30
2018-07-11T01:08:11.337Z,16.40
2018-07-11T01:09:11.292Z,16.70
2018-07-11T01:10:11.245Z,16.50
2018-07-11T01:11:11.213Z,16.10
2018-07-11T01:12:11.137Z,17.00
2018-07-11T01:13:11.088Z,16.30
2018-07-11T01:14:11.044Z,17.60
2018-07-11T01:15:10.996Z,16.70
2018-07-11T01:16:10.968Z,16.90
2018-07-11T01:17:10.894Z,17.10
2018-07-11T01:18:10.847Z,16.50
2018-07-11T01:19:10.804Z,16.40
2018-07-11T01:20:10.746Z,16.40
2018-07-11T01:21:10.720Z,16.20
2018-07-11T01:22:10.649Z,15.40
2018-07-11T01:23:10.600Z,14.70
2018-07-11T01:24:10.551Z,14.90
2018-07-11T01:25:10.504Z,15.00
2018-07-11T01:26:10.480Z,14.70
2018-07-11T01:27:10.404Z,14.50
2018-07-11T01:28:10.356Z,14.20
2018-07-11T01:29:10.305Z,14.30
2018-07-11T01:30:10.256Z,13.90
2018-07-11T01:31:10.233Z,13.70
2018-07-11T01:32:10.156Z,14.00
2018-07-11T01:33:10.109Z,13.90
2018-07-11T01:34:10.056Z,13.40
2018-07-11T01:35:10.012Z,13.20
2018-07-11T01:36:09.986Z,13.50
2018-07-11T01:37:09.911Z,13.10
2018-07-11T01:38:09.860Z,13.30
2018-07-11T01:39:09.814Z,13.40
2018-07-11T01:40:09.764Z,13.00
2018-07-11T01:41:09.738Z,12.70
2018-07-11T01:42:09.667Z,12.90
2018-07-11T01:43:09.621Z,12.80
2018-07-11T01:44:09.566Z,13.00
2018-07-11T01:45:09.518Z,13.00
2018-07-11T01:46:09.493Z,12.30
2018-07-11T01:47:09.423Z,12.90
2018-07-11T01:48:09.376Z,13.40
2018-07-11T01:49:09.326Z,13.00
2018-07-11T01:50:09.276Z,12.90
2018-07-11T01:51:09.254Z,12.60
2018-07-11T01:52:09.172Z,12.80
2018-07-11T01:53:09.126Z,12.80
2018-07-11T01:54:09.077Z,12.70
2018-07-11T01:55:09.029Z,12.70
2018-07-11T01:56:09.000Z,12.50
2018-07-11T01:57:08.930Z,12.40
2018-07-11T01:58:08.880Z,12.30
2018-07-11T01:59:08.832Z,12.00
2018-07-11T02:00:08.786Z,12.10
2018-07-11T02:01:08.762Z,11.90
2018-07-11T02:02:08.684Z,12.10
2018-07-11T02:03:08.635Z,11.90
2018-07-11T02:04:08.588Z,11.60
2018-07-11T02:05:08.532Z,11.90
2018-07-11T02:06:08.510Z,11.50
2018-07-11T02:07:08.440Z,11.20
2018-07-11T02:08:08.391Z,12.10
2018-07-11T02:09:08.345Z,11.90
2018-07-11T02:10:08.292Z,12.10
2018-07-11T02:11:08.263Z,12.50
2018-07-11T02:12:08.197Z,12.30
2018-07-11T02:13:08.144Z,12.50
2018-07-11T02:14:08.094Z,12.70
2018-07-11T02:15:08.047Z,13.00
2018-07-11T02:16:08.024Z,12.70
2018-07-11T02:17:07.949Z,11.40
2018-07-11T02:18:07.902Z,12.70
2018-07-11T02:19:07.851Z,12.20
2018-07-11T02:20:07.800Z,12.30
2018-07-11T02:21:07.782Z,11.80
2018-07-11T02:22:07.702Z,12.10
2018-07-11T02:23:07.655Z,12.00
2018-07-11T02:24:07.606Z,12.10
2018-07-11T02:25:07.558Z,11.80
2018-07-11T02:26:07.531Z,11.30
2018-07-11T02:27:07.455Z,11.40
2018-07-11T02:28:07.411Z,12.00
2018-07-11T02:29:07.360Z,12.00
2018-07-11T02:30:07.310Z,12.00
2018-07-11T02:31:07.287Z,12.40
2018-07-11T02:32:07.216Z,12.80
2018-07-11T02:33:07.164Z,12.10
2018-07-11T02:34:07.120Z,12.40
2018-07-11T02:35:07.078Z,11.90
2018-07-11T02:36:07.041Z,12.00
2018-07-11T02:37:06.969Z,12.70
2018-07-11T02:38:06.920Z,12.20
2018-07-11T02:39:06.869Z,11.60
2018-07-11T02:40:06.819Z,11.50
2018-07-11T02:41:06.804Z,11.70
2018-07-11T02:42:06.723Z,12.00
2018-07-11T02:43:06.676Z,12.30
2018-07-11T02:44:06.626Z,11.50
2018-07-11T02:45:06.576Z,11.60
2018-07-11T02:46:06.533Z,11.60
2018-07-11T02:47:06.501Z,11.50
2018-07-11T02:48:06.429Z,11.20
2018-07-11T02:49:06.380Z,11.20
2018-07-11T02:50:06.333Z,11.50
2018-07-11T02:51:06.282Z,10.70
2018-07-11T02:52:06.256Z,11.10
2018-07-11T02:53:06.180Z,11.50
2018-07-11T02:54:06.128Z,11.20
2018-07-11T02:55:06.085Z,11.20
2018-07-11T02:56:06.033Z,10.90
2018-07-11T02:57:06.011Z,11.00
2018-07-11T02:58:05.937Z,11.10
2018-07-11T02:59:05.883Z,11.20
2018-07-11T03:00:05.840Z,11.30
2018-07-11T03:01:05.791Z,10.90
2018-07-11T03:02:05.765Z,10.70
2018-07-11T03:03:05.690Z,11.00
2018-07-11T03:04:05.639Z,11.40
2018-07-11T03:05:05.592Z,11.20
2018-07-11T03:06:05.545Z,10.90
2018-07-11T03:07:05.519Z,11.00
2018-07-11T03:08:05.443Z,10.40
2018-07-11T03:09:05.393Z,11.30
2018-07-11T03:10:05.344Z,11.60
2018-07-11T03:11:05.292Z,11.30
2018-07-11T03:12:05.269Z,10.00
2018-07-11T03:13:05.197Z,10.10
2018-07-11T03:14:05.150Z,10.40
2018-07-11T03:15:05.103Z,10.20
2018-07-11T03:16:05.045Z,9.70
2018-07-11T03:17:05.022Z,10.60
2018-07-11T03:18:04.954Z,9.60
2018-07-11T03:19:04.902Z,10.40
2018-07-11T03:20:04.852Z,10.20
2018-07-11T03:21:04.805Z,10.00
2018-07-11T03:22:04.779Z,8.60
2018-07-11T03:23:04.708Z,8.90
2018-07-11T03:24:04.657Z,9.50
2018-07-11T03:25:04.607Z,9.70
2018-07-11T03:26:04.557Z,10.10
2018-07-11T03:27:04.532Z,10.10
2018-07-11T03:28:04.457Z,10.20
2018-07-11T03:29:04.408Z,10.70
2018-07-11T03:30:04.363Z,10.40
2018-07-11T03:31:04.312Z,10.10
2018-07-11T03:32:04.282Z,10.40
2018-07-11T03:33:04.212Z,10.60
2018-07-11T03:34:04.160Z,10.70
2018-07-11T03:35:04.114Z,7.80
2018-07-11T03:36:04.061Z,7.10
2018-07-11T03:37:04.033Z,7.50
2018-07-11T03:38:03.969Z,8.40
2018-07-11T03:39:03.920Z,8.60
2018-07-11T03:40:03.866Z,9.10
2018-07-11T03:41:03.820Z,8.30
2018-07-11T03:42:03.968Z,9.20
2018-07-11T03:43:03.719Z,8.90
2018-07-11T03:44:03.665Z,9.50
2018-07-11T03:45:03.621Z,9.40
2018-07-11T03:46:03.571Z,9.80
2018-07-11T03:47:03.522Z,10.30
2018-07-11T03:48:03.497Z,9.80
2018-07-11T03:49:03.425Z,9.80
2018-07-11T03:50:03.379Z,10.30
2018-07-11T03:51:03.323Z,10.20
2018-07-11T03:52:03.274Z,9.40
2018-07-11T03:53:03.248Z,9.60
2018-07-11T03:54:03.176Z,9.40
2018-07-11T03:55:03.127Z,10.00
2018-07-11T03:56:03.081Z,10.20
2018-07-11T03:57:03.034Z,9.60
2018-07-11T03:58:03.001Z,10.20
2018-07-11T03:59:02.933Z,10.20
2018-07-11T04:00:02.882Z,10.00
2018-07-11T04:01:02.836Z,9.70
2018-07-11T04:02:02.782Z,9.90
2018-07-11T04:03:02.755Z,10.20
2018-07-11T04:04:02.684Z,9.60
2018-07-11T04:05:02.635Z,9.40
2018-07-11T04:06:02.588Z,9.80
2018-07-11T04:07:02.536Z,10.20
2018-07-11T04:08:02.519Z,9.80
2018-07-11T04:09:02.439Z,9.80
2018-07-11T04:10:02.396Z,10.00
2018-07-11T04:11:02.343Z,9.80
2018-07-11T04:12:02.288Z,9.50
2018-07-11T04:13:02.263Z,9.90
2018-07-11T04:14:02.192Z,9.60
2018-07-11T04:15:02.142Z,9.40
2018-07-11T04:16:02.096Z,9.90
2018-07-11T04:17:02.045Z,9.90
2018-07-11T04:18:02.022Z,9.60
2018-07-11T04:19:01.952Z,9.80
2018-07-11T04:20:01.900Z,9.40
2018-07-11T04:21:01.852Z,9.10
2018-07-11T04:22:01.798Z,9.20
2018-07-11T04:23:01.777Z,9.60
2018-07-11T04:24:01.703Z,9.30
2018-07-11T04:25:01.659Z,9.10
2018-07-11T04:26:01.604Z,9.50
2018-07-11T04:27:01.553Z,9.20
2018-07-11T04:28:01.529Z,8.80
2018-07-11T04:29:01.452Z,9.70
2018-07-11T04:30:01.407Z,9.70
2018-07-11T04:31:01.356Z,9.10
2018-07-11T04:32:01.305Z,9.00
2018-07-11T04:33:01.279Z,9.30
2018-07-11T04:34:01.211Z,9.20
2018-07-11T04:35:01.165Z,10.00
2018-07-11T04:36:01.108Z,8.70
2018-07-11T04:37:01.085Z,7.90
2018-07-11T04:38:01.045Z,8.50
2018-07-11T04:39:00.966Z,8.70
2018-07-11T04:40:00.919Z,8.50
2018-07-11T04:41:00.867Z,8.90
2018-07-11T04:42:00.819Z,8.90
2018-07-11T04:43:00.795Z,9.10
2018-07-11T04:44:00.717Z,9.00
2018-07-11T04:45:00.666Z,9.40
2018-07-11T04:46:00.617Z,9.20
2018-07-11T04:47:00.571Z,9.70
2018-07-11T04:48:00.547Z,9.60
2018-07-11T04:49:00.469Z,9.90
2018-07-11T04:50:00.422Z,9.80
2018-07-11T04:51:00.379Z,9.30
2018-07-11T04:52:00.325Z,9.60
2018-07-11T04:53:00.301Z,9.50
2018-07-11T04:54:00.234Z,9.80
2018-07-11T04:55:00.176Z,10.20
2018-07-11T04:56:00.135Z,10.00
2018-07-11T04:57:00.078Z,9.70
2018-07-11T04:58:00.052Z,10.40
2018-07-11T04:58:59.977Z,9.90
2018-07-11T04:59:59.930Z,9.80
2018-07-11T05:00:59.889Z,9.90
2018-07-11T05:01:59.845Z,9.20
2018-07-11T05:02:59.810Z,9.90
2018-07-11T05:03:59.734Z,9.60
2018-07-11T05:04:59.690Z,10.30
2018-07-11T05:05:59.639Z,9.50
2018-07-11T05:06:59.589Z,9.20
2018-07-11T05:07:59.564Z,9.90
2018-07-11T05:08:59.493Z,9.40
2018-07-11T05:09:59.444Z,9.90
2018-07-11T05:10:59.470Z,10.00
2018-07-11T05:11:59.350Z,9.50
2018-07-11T05:12:59.325Z,9.60
2018-07-11T05:13:59.250Z,9.70
2018-07-11T05:14:59.198Z,9.40
2018-07-11T05:15:59.147Z,10.20
2018-07-11T05:16:59.097Z,10.50
2018-07-11T05:17:59.052Z,9.90
2018-07-11T05:18:59.028Z,10.00
2018-07-11T05:19:58.954Z,10.40
2018-07-11T05:20:58.909Z,10.60
2018-07-11T05:21:58.854Z,10.90
2018-07-11T05:22:58.810Z,10.70
2018-07-11T05:23:58.785Z,11.00
2018-07-11T05:24:58.721Z,10.30
2018-07-11T05:25:58.667Z,11.00
2018-07-11T05:26:58.648Z,9.50
2018-07-11T05:27:58.563Z,10.80
2018-07-11T05:28:58.540Z,10.40
2018-07-11T05:29:58.470Z,10.80
2018-07-11T05:30:58.414Z,10.70
2018-07-11T05:31:58.369Z,10.10
2018-07-11T05:32:58.321Z,10.80
2018-07-11T05:33:58.295Z,9.90
2018-07-11T05:34:58.225Z,10.70
2018-07-11T05:35:58.177Z,11.10
2018-07-11T05:36:58.124Z,11.10
2018-07-11T05:37:58.080Z,10.00
2018-07-11T05:38:58.051Z,11.70
2018-07-11T05:39:57.985Z,10.70
2018-07-11T05:40:57.926Z,10.90
2018-07-11T05:41:57.882Z,10.20
2018-07-11T05:42:57.844Z,10.70
2018-07-11T05:43:57.807Z,10.50
2018-07-11T05:44:57.738Z,10.20
2018-07-11T05:45:57.684Z,10.60
2018-07-11T05:46:57.641Z,10.60
2018-07-11T05:47:57.590Z,10.90
2018-07-11T05:48:57.570Z,10.90
2018-07-11T05:49:57.494Z,10.60
2018-07-11T05:50:57.445Z,10.60
2018-07-11T05:51:57.395Z,10.10
2018-07-11T05:52:57.348Z,10.80
2018-07-11T05:53:57.323Z,10.60
2018-07-11T05:54:57.254Z,10.20
2018-07-11T05:55:57.212Z,10.30
2018-07-11T05:56:57.155Z,11.20
2018-07-11T05:57:57.105Z,10.00
2018-07-11T05:58:57.081Z,9.90
2018-07-11T05:59:57.055Z,10.20
2018-07-11T06:00:56.961Z,10.30
2018-07-11T06:01:56.907Z,9.30
2018-07-11T06:02:56.870Z,10.20
2018-07-11T06:03:56.841Z,9.50
2018-07-11T06:04:56.767Z,10.40
2018-07-11T06:05:56.725Z,10.80
2018-07-11T06:06:56.672Z,9.80
2018-07-11T06:07:56.638Z,9.20
2018-07-11T06:08:56.595Z,10.50
2018-07-11T06:09:56.528Z,10.10
2018-07-11T06:10:56.477Z,10.00
2018-07-11T06:11:56.428Z,8.30
2018-07-11T06:12:56.384Z,8.80
2018-07-11T06:13:56.355Z,9.90
2018-07-11T06:14:56.285Z,9.00
2018-07-11T06:15:56.235Z,8.70
2018-07-11T06:16:56.187Z,9.40
2018-07-11T06:17:56.181Z,9.80
2018-07-11T06:18:56.112Z,9.80
2018-07-11T06:19:56.042Z,9.80
2018-07-11T06:20:55.996Z,9.80
2018-07-11T06:21:55.945Z,10.30
2018-07-11T06:22:55.898Z,9.90
2018-07-11T06:23:55.871Z,9.50
2018-07-11T06:24:55.799Z,10.00
2018-07-11T06:25:55.753Z,9.80
2018-07-11T06:26:55.707Z,9.90
2018-07-11T06:27:55.692Z,9.80
2018-07-11T06:28:55.639Z,9.70
2018-07-11T06:29:55.559Z,10.30
2018-07-11T06:30:55.514Z,9.90
2018-07-11T06:31:55.463Z,9.40
2018-07-11T06:32:55.415Z,9.90
2018-07-11T06:33:55.394Z,9.40
2018-07-11T06:34:55.321Z,10.50
2018-07-11T06:35:55.275Z,9.90
2018-07-11T06:36:55.221Z,9.70
2018-07-11T06:37:55.190Z,9.90
2018-07-11T06:38:55.156Z,9.40
2018-07-11T06:39:55.084Z,9.60
2018-07-11T06:40:55.032Z,10.00
2018-07-11T06:41:54.981Z,10.00
2018-07-11T06:42:54.937Z,10.10
2018-07-11T06:43:54.919Z,10.00
2018-07-11T06:44:54.839Z,9.60
2018-07-11T06:45:54.793Z,10.20
2018-07-11T06:46:54.747Z,10.20
2018-07-11T06:47:54.712Z,10.50
2018-07-11T06:48:54.641Z,10.60
2018-07-11T06:49:54.623Z,10.20
2018-07-11T06:50:54.554Z,10.20
2018-07-11T06:51:54.502Z,10.30
2018-07-11T06:52:54.454Z,10.10
2018-07-11T06:53:54.405Z,9.90
2018-07-11T06:54:54.386Z,10.10
2018-07-11T06:55:54.311Z,9.60
2018-07-11T06:56:54.260Z,9.00
2018-07-11T06:57:54.217Z,9.50
2018-07-11T06:58:54.166Z,9.80
2018-07-11T06:59:54.143Z,9.90
2018-07-11T07:00:54.079Z,10.40
2018-07-11T07:01:54.023Z,9.50
2018-07-11T07:02:53.974Z,10.30
2018-07-11T07:03:53.923Z,9.70
2018-07-11T07:04:53.903Z,9.60
2018-07-11T07:05:53.835Z,9.20
2018-07-11T07:06:53.781Z,9.70
2018-07-11T07:07:53.737Z,9.90
2018-07-11T07:08:53.685Z,8.90
2018-07-11T07:09:53.658Z,8.40
2018-07-11T07:10:53.601Z,9.30
2018-07-11T07:11:53.542Z,8.70
2018-07-11T07:12:53.499Z,9.00
2018-07-11T07:13:53.447Z,8.70
2018-07-11T07:14:53.425Z,8.20
2018-07-11T07:15:53.350Z,8.70
2018-07-11T07:16:53.304Z,8.60
2018-07-11T07:17:53.261Z,8.60
2018-07-11T07:18:53.207Z,8.00
2018-07-11T07:19:53.182Z,8.20
2018-07-11T07:20:53.116Z,8.00
2018-07-11T07:21:53.062Z,8.70
2018-07-11T07:22:53.017Z,8.80
2018-07-11T07:23:52.972Z,9.10
2018-07-11T07:24:52.942Z,9.50
2018-07-11T07:25:52.874Z,9.10
2018-07-11T07:26:52.828Z,9.30
2018-07-11T07:27:52.777Z,10.20
2018-07-11T07:28:52.728Z,9.60
2018-07-11T07:29:52.708Z,10.20
2018-07-11T07:30:52.640Z,10.50
2018-07-11T07:31:52.584Z,10.00
2018-07-11T07:32:52.539Z,9.90
2018-07-11T07:33:52.488Z,9.90
2018-07-11T07:34:52.594Z,9.70
2018-07-11T07:35:52.390Z,9.80
2018-07-11T07:36:52.390Z,9.90
2018-07-11T07:37:52.304Z,10.20
2018-07-11T07:38:52.261Z,9.80
2018-07-11T07:39:52.226Z,10.00
2018-07-11T07:40:52.152Z,10.00
2018-07-11T07:41:52.109Z,10.30
2018-07-11T07:42:52.061Z,9.90
2018-07-11T07:43:52.012Z,10.40
2018-07-11T07:44:51.988Z,9.70
2018-07-11T07:45:51.921Z,10.00
2018-07-11T07:46:51.871Z,10.20
2018-07-11T07:47:51.819Z,9.70
2018-07-11T07:48:51.771Z,10.00
2018-07-11T07:49:51.747Z,9.20
2018-07-11T07:50:51.676Z,9.60
2018-07-11T07:51:51.622Z,10.00
2018-07-11T07:52:51.637Z,9.50
2018-07-11T07:53:51.620Z,9.80
2018-07-11T07:54:51.737Z,9.30
2018-07-11T07:55:51.489Z,9.40
2018-07-11T07:56:51.389Z,9.70
2018-07-11T07:57:51.333Z,9.20
2018-07-11T07:58:51.295Z,10.30
2018-07-11T07:59:51.272Z,9.40
2018-07-11T08:00:51.197Z,9.50
2018-07-11T08:01:51.147Z,9.50
2018-07-11T08:02:51.101Z,9.50
2018-07-11T08:03:51.054Z,9.20
2018-07-11T08:04:51.026Z,9.80
2018-07-11T08:05:50.959Z,9.70
2018-07-11T08:06:50.944Z,10.30
2018-07-11T08:07:50.858Z,10.60
2018-07-11T08:08:50.816Z,10.00
2018-07-11T08:09:50.809Z,10.20
2018-07-11T08:10:50.719Z,10.30
2018-07-11T08:11:50.669Z,10.00
2018-07-11T08:12:50.622Z,10.20
2018-07-11T08:13:50.571Z,10.00
2018-07-11T08:14:50.550Z,10.10
2018-07-11T08:15:50.477Z,9.70
2018-07-11T08:16:50.431Z,10.00
2018-07-11T08:17:50.380Z,9.60
2018-07-11T08:18:50.338Z,9.60
2018-07-11T08:19:50.315Z,9.30
2018-07-11T08:20:50.246Z,9.50
2018-07-11T08:21:50.192Z,9.80
2018-07-11T08:22:50.145Z,10.40
2018-07-11T08:23:50.097Z,10.00
2018-07-11T08:24:50.054Z,10.00
2018-07-11T08:25:50.023Z,10.80
2018-07-11T08:26:49.952Z,11.00
2018-07-11T08:27:49.899Z,10.80
2018-07-11T08:28:49.859Z,11.50
2018-07-11T08:29:49.837Z,10.60
2018-07-11T08:30:49.793Z,10.60
2018-07-11T08:31:49.714Z,10.90
2018-07-11T08:32:49.665Z,10.90
2018-07-11T08:33:49.617Z,11.00
2018-07-11T08:34:49.574Z,11.50
2018-07-11T08:35:49.545Z,11.40
2018-07-11T08:36:49.475Z,11.40
2018-07-11T08:37:49.425Z,11.20
2018-07-11T08:38:49.389Z,11.60
2018-07-11T08:39:49.339Z,11.00
2018-07-11T08:40:49.314Z,10.60
2018-07-11T08:41:49.235Z,11.00
2018-07-11T08:42:49.191Z,11.00
2018-07-11T08:43:49.145Z,11.40
2018-07-11T08:44:49.091Z,11.70
2018-07-11T08:45:49.047Z,11.50
2018-07-11T08:46:49.023Z,11.10
2018-07-11T08:47:49.052Z,11.50
2018-07-11T08:48:48.905Z,11.50
2018-07-11T08:49:48.854Z,11.60
2018-07-11T08:50:48.808Z,12.50
2018-07-11T08:51:48.785Z,12.20
2018-07-11T08:52:48.717Z,11.90
2018-07-11T08:53:48.665Z,12.00
2018-07-11T08:54:48.622Z,11.70
2018-07-11T08:55:48.571Z,12.40
2018-07-11T08:56:48.548Z,11.80
2018-07-11T08:57:48.478Z,11.80
2018-07-11T08:58:48.437Z,12.20
2018-07-11T08:59:48.381Z,12.40
2018-07-11T09:00:48.334Z,12.50
2018-07-11T09:01:48.312Z,12.40
2018-07-11T09:02:48.296Z,12.50
2018-07-11T09:03:48.187Z,11.90
2018-07-11T09:04:48.142Z,11.80
2018-07-11T09:05:48.096Z,12.40
2018-07-11T09:06:48.077Z,12.30
2018-07-11T09:07:48.001Z,12.10
2018-07-11T09:08:47.951Z,12.90
2018-07-11T09:09:47.905Z,11.90
2018-07-11T09:10:47.903Z,12.00
2018-07-11T09:11:47.808Z,12.50
2018-07-11T09:12:47.783Z,12.10
2018-07-11T09:13:47.713Z,12.40
2018-07-11T09:14:47.663Z,12.20
2018-07-11T09:15:47.619Z,12.30
2018-07-11T09:16:47.572Z,12.50
2018-07-11T09:17:47.559Z,12.50
2018-07-11T09:18:47.474Z,12.20
2018-07-11T09:19:47.425Z,12.30
2018-07-11T09:20:47.379Z,13.30
2018-07-11T09:21:47.332Z,13.80
2018-07-11T09:22:47.309Z,12.70
2018-07-11T09:23:47.235Z,12.70
2018-07-11T09:24:47.197Z,13.20
2018-07-11T09:25:47.139Z,12.90
2018-07-11T09:26:47.095Z,12.70
2018-07-11T09:27:47.067Z,12.70
2018-07-11T09:28:46.999Z,12.50
2018-07-11T09:29:46.951Z,13.40
2018-07-11T09:30:46.905Z,13.20
2018-07-11T09:31:46.859Z,13.00
2018-07-11T09:32:46.833Z,13.10
2018-07-11T09:33:46.760Z,12.60
2018-07-11T09:34:46.714Z,12.70
2018-07-11T09:35:46.662Z,13.00
2018-07-11T09:36:46.621Z,12.90
2018-07-11T09:37:46.598Z,12.70
2018-07-11T09:38:46.520Z,12.80
2018-07-11T09:39:46.482Z,12.50
2018-07-11T09:40:46.449Z,12.70
2018-07-11T09:41:46.378Z,12.40
2018-07-11T09:42:46.362Z,13.10
2018-07-11T09:43:46.283Z,12.30
2018-07-11T09:44:46.240Z,12.80
2018-07-11T09:45:46.194Z,12.40
2018-07-11T09:46:46.145Z,13.20
2018-07-11T09:47:46.127Z,12.80
2018-07-11T09:48:46.053Z,12.80
2018-07-11T09:49:46.003Z,12.20
2018-07-11T09:50:45.950Z,13.20
2018-07-11T09:51:45.908Z,12.20
2018-07-11T09:52:45.858Z,13.20
2018-07-11T09:53:45.886Z,13.30
2018-07-11T09:54:45.761Z,13.40
2018-07-11T09:55:45.713Z,13.00
2018-07-11T09:56:45.667Z,13.30
2018-07-11T09:57:45.679Z,12.60
2018-07-11T09:58:45.616Z,12.60
2018-07-11T09:59:45.521Z,13.30
2018-07-11T10:00:45.485Z,13.20
2018-07-11T10:01:45.430Z,13.40
2018-07-11T10:02:45.388Z,13.60
2018-07-11T10:03:45.359Z,13.40
2018-07-11T10:04:45.285Z,13.90
2018-07-11T10:05:45.241Z,14.40
2018-07-11T10:06:45.197Z,13.80
2018-07-11T10:07:45.146Z,14.70
2018-07-11T10:08:45.129Z,13.20
2018-07-11T10:09:45.058Z,14.40
2018-07-11T10:10:45.006Z,14.20
2018-07-11T10:11:44.952Z,14.30
2018-07-11T10:12:44.907Z,15.20
2018-07-11T10:13:44.883Z,14.90
2018-07-11T10:14:44.812Z,14.70
2018-07-11T10:15:44.763Z,15.30
2018-07-11T10:16:44.716Z,15.30
2018-07-11T10:17:44.668Z,14.90
2018-07-11T10:18:44.640Z,14.50
2018-07-11T10:19:44.576Z,15.40
2018-07-11T10:20:44.523Z,14.80
2018-07-11T10:21:44.560Z,15.30
2018-07-11T10:22:44.431Z,15.80
2018-07-11T10:23:44.418Z,14.90
2018-07-11T10:24:44.332Z,15.50
2018-07-11T10:25:44.288Z,16.00
2018-07-11T10:26:44.238Z,16.60
2018-07-11T10:27:44.190Z,17.20
2018-07-11T10:28:44.142Z,16.70
2018-07-11T10:29:44.116Z,16.70
2018-07-11T10:30:44.047Z,17.30
2018-07-11T10:31:43.997Z,16.90
2018-07-11T10:32:43.953Z,17.20
2018-07-11T10:33:43.965Z,17.30
2018-07-11T10:34:43.878Z,17.30
2018-07-11T10:35:43.805Z,17.80
2018-07-11T10:36:43.757Z,18.70
2018-07-11T10:37:43.714Z,17.70
2018-07-11T10:38:43.663Z,17.90
2018-07-11T10:39:43.645Z,18.00
2018-07-11T10:40:43.572Z,17.40
2018-07-11T10:41:43.521Z,18.20
2018-07-11T10:42:43.475Z,18.00
2018-07-11T10:43:43.420Z,16.90
2018-07-11T10:44:43.403Z,18.00
2018-07-11T10:45:43.327Z,17.60
2018-07-11T10:46:43.296Z,18.60
2018-07-11T10:47:43.236Z,18.80
2018-07-11T10:48:43.185Z,17.60
2018-07-11T10:49:43.172Z,18.70
2018-07-11T10:50:43.089Z,19.20
2018-07-11T10:51:43.043Z,18.30
2018-07-11T10:52:42.994Z,18.60
2018-07-11T10:53:42.948Z,18.80
2018-07-11T10:54:42.923Z,19.20
2018-07-11T10:55:42.853Z,18.80
2018-07-11T10:56:42.836Z,19.30
2018-07-11T10:57:42.796Z,19.50
2018-07-11T10:58:42.708Z,18.30
2018-07-11T10:59:42.659Z,17.90
2018-07-11T11:01:05.020Z,19.40
2018-07-11T11:01:42.559Z,18.60
2018-07-11T11:02:42.568Z,18.00
2018-07-11T11:03:42.464Z,19.30
2018-07-11T11:04:42.419Z,18.60
2018-07-11T11:05:42.397Z,17.60
2018-07-11T11:06:42.322Z,18.00
2018-07-11T11:07:42.273Z,18.00
2018-07-11T11:08:42.233Z,17.50
2018-07-11T11:09:42.179Z,17.80
2018-07-11T11:10:42.155Z,17.20
2018-07-11T11:11:42.084Z,18.20
2018-07-11T11:12:42.033Z,18.60
2018-07-11T11:13:41.986Z,17.80
2018-07-11T11:14:41.977Z,18.10
2018-07-11T11:15:41.908Z,19.80
2018-07-11T11:16:41.840Z,19.00
2018-07-11T11:17:41.797Z,18.00
2018-07-11T11:18:41.749Z,18.20
2018-07-11T11:19:41.706Z,19.00
2018-07-11T11:20:41.674Z,19.50
2018-07-11T11:21:41.602Z,18.50
2018-07-11T11:22:41.565Z,18.90
2018-07-11T11:23:41.505Z,19.20
2018-07-11T11:24:41.462Z,18.60
2018-07-11T11:25:41.456Z,17.60
2018-07-11T11:26:41.361Z,18.40
2018-07-11T11:27:41.312Z,18.10
2018-07-11T11:28:41.265Z,18.50
2018-07-11T11:29:41.219Z,18.90
2018-07-11T11:30:41.196Z,19.00
2018-07-11T11:31:41.119Z,19.50
2018-07-11T11:32:41.074Z,19.90
2018-07-11T11:33:41.027Z,20.70
2018-07-11T11:34:40.978Z,20.30
2018-07-11T11:35:41.006Z,19.20
2018-07-11T11:36:40.883Z,19.70
2018-07-11T11:37:40.836Z,19.80
2018-07-11T11:38:40.785Z,19.80
2018-07-11T11:39:40.740Z,19.30
2018-07-11T11:40:40.687Z,20.00
2018-07-11T11:41:40.768Z,19.50
2018-07-11T11:42:40.612Z,18.30
2018-07-11T11:43:40.565Z,18.00
2018-07-11T11:44:40.494Z,19.00
2018-07-11T11:45:40.450Z,17.90
2018-07-11T11:46:40.432Z,18.00
2018-07-11T11:47:40.351Z,18.80
2018-07-11T11:48:40.305Z,18.00
2018-07-11T11:49:40.254Z,17.70
2018-07-11T11:50:40.208Z,17.50
2018-07-11T11:51:40.187Z,17.40
2018-07-11T11:52:40.117Z,18.10
2018-07-11T11:53:40.064Z,17.50
2018-07-11T11:54:40.016Z,18.20
2018-07-11T11:55:39.965Z,17.70
2018-07-11T11:56:39.956Z,18.10
2018-07-11T11:57:39.871Z,18.60
2018-07-11T11:58:39.843Z,18.50
2018-07-11T11:59:39.773Z,18.30
2018-07-11T12:00:39.727Z,17.00
2018-07-11T12:01:39.712Z,17.30
2018-07-11T12:02:39.637Z,17.70
2018-07-11T12:03:39.597Z,16.90
2018-07-11T12:04:39.533Z,17.00
2018-07-11T12:05:39.491Z,17.90
2018-07-11T12:06:39.468Z,17.00
2018-07-11T12:07:39.395Z,17.10
2018-07-11T12:08:39.351Z,16.10
2018-07-11T12:09:39.301Z,16.70
2018-07-11T12:10:39.251Z,16.30
2018-07-11T12:11:39.235Z,15.70
2018-07-11T12:12:39.159Z,16.30
2018-07-11T12:13:39.109Z,14.50
2018-07-11T12:14:39.060Z,15.60
2018-07-11T12:15:39.009Z,15.90
2018-07-11T12:16:38.988Z,15.50
2018-07-11T12:17:38.918Z,14.60
2018-07-11T12:18:38.866Z,16.30
2018-07-11T12:19:38.824Z,15.00
2018-07-11T12:20:38.777Z,15.20
2018-07-11T12:21:38.762Z,15.70
2018-07-11T12:22:38.679Z,16.30
2018-07-11T12:23:38.643Z,16.40
2018-07-11T12:24:38.591Z,15.70
2018-07-11T12:25:38.568Z,15.10
2018-07-11T12:26:38.511Z,15.10
2018-07-11T12:27:38.468Z,14.70
2018-07-11T12:28:38.391Z,14.70
2018-07-11T12:29:38.354Z,14.90
2018-07-11T12:30:38.312Z,14.90
2018-07-11T12:31:38.251Z,14.80
2018-07-11T12:32:38.226Z,15.00
2018-07-11T12:33:38.212Z,14.20
2018-07-11T12:34:38.111Z,14.90
2018-07-11T12:35:38.063Z,14.90
2018-07-11T12:36:38.026Z,15.10
2018-07-11T12:37:38.010Z,13.30
2018-07-11T12:38:37.917Z,14.50
2018-07-11T12:39:37.872Z,13.70
2018-07-11T12:40:37.819Z,13.50
2018-07-11T12:41:37.783Z,15.30
2018-07-11T12:42:37.756Z,14.50
2018-07-11T12:43:37.757Z,14.80
2018-07-11T12:44:37.642Z,15.30
2018-07-11T12:45:37.587Z,15.70
2018-07-11T12:46:37.535Z,15.60
2018-07-11T12:47:37.519Z,15.60
2018-07-11T12:48:37.439Z,15.80
2018-07-11T12:49:37.398Z,15.60
2018-07-11T12:50:37.349Z,16.40
2018-07-11T12:51:37.295Z,16.10
2018-07-11T12:52:37.280Z,16.80
2018-07-11T12:53:37.201Z,15.80
2018-07-11T12:54:37.159Z,16.70
2018-07-11T12:55:37.106Z,16.00
2018-07-11T12:56:37.060Z,16.30
2018-07-11T12:57:37.020Z,16.50